Time;durP1;ratioP1;P1;durP2;ratioP2;P2;SDS_P1;SDS_P2;PMS_P1;PMS_P2;Temp;Humidity;BMP_temperature;BMP_pressure;BME280_temperature;BME280_humidity;BME280_pressure;Samples;Min_cycle;Max_cycle;Signal;HPM_P1;HPM_P2
2023/04/22 04:32:46;;;;;;;;;23.50;23.50;;;;;14.25;52.21;100021.03;5106475;27;45303;-75
2023/04/22 04:35:13;;;;;;;;;26.50;24.25;;;;;14.27;52.31;100037.94;5099022;27;45397;-74
2023/04/22 04:37:39;;;;;;;;;26.75;25.00;;;;;14.34;52.21;100068.88;5117326;27;45324;-74
2023/04/22 04:40:06;;;;;;;;;31.00;26.00;;;;;14.26;52.48;100054.22;5117194;27;46323;-74
2023/04/22 04:42:32;;;;;;;;;23.50;22.25;;;;;14.26;52.77;100043.44;5117534;27;45400;-74
2023/04/22 04:44:58;;;;;;;;;30.50;27.25;;;;;14.28;52.98;100039.69;5117199;27;45370;-75
2023/04/22 04:47:23;;;;;;;;;27.50;27.50;;;;;14.20;54.13;100016.94;5098733;27;45410;-73
2023/04/22 04:49:52;;;;;;;;;27.00;25.50;;;;;14.22;54.97;100018.53;5117065;27;45396;-74
2023/04/22 04:52:18;;;;;;;;;29.00;26.00;;;;;14.22;55.37;100023.06;5097424;27;45446;-73
2023/04/22 04:54:43;;;;;;;;;25.50;25.50;;;;;14.19;55.31;100026.88;5099689;27;45316;-73
2023/04/22 04:57:09;;;;;;;;;28.50;27.00;;;;;14.12;55.95;99987.81;5098343;27;45652;-73
2023/04/22 04:59:34;;;;;;;;;29.50;28.50;;;;;14.13;56.37;99994.06;5116746;27;45451;-74
2023/04/22 05:02:00;;;;;;;;;26.25;25.25;;;;;14.12;56.79;100008.56;5117058;27;45300;-73
2023/04/22 05:04:25;;;;;;;;;30.25;25.75;;;;;14.10;57.08;100016.75;5116873;27;45482;-76
2023/04/22 05:06:50;;;;;;;;;32.00;26.75;;;;;14.07;57.60;99995.38;5117135;27;45485;-75
2023/04/22 05:09:16;;;;;;;;;38.75;33.00;;;;;13.99;58.71;99987.00;5116320;27;46022;-74
2023/04/22 05:11:41;;;;;;;;;36.00;30.75;;;;;13.98;58.57;99978.03;5117157;27;45354;-74
2023/04/22 05:14:06;;;;;;;;;28.25;26.50;;;;;13.89;58.34;99989.47;5116864;27;45334;-75
2023/04/22 05:16:32;;;;;;;;;32.50;30.50;;;;;13.89;59.41;100020.94;5115351;27;46329;-73
2023/04/22 05:18:57;;;;;;;;;28.00;26.25;;;;;13.91;59.33;100037.88;5116730;27;45337;-76
2023/04/22 05:21:22;;;;;;;;;28.00;28.00;;;;;13.86;60.53;100046.31;5098361;27;45397;-74
2023/04/22 05:23:48;;;;;;;;;36.00;28.75;;;;;13.82;60.31;100052.00;5116397;27;45270;-75
2023/04/22 05:26:14;;;;;;;;;34.50;28.00;;;;;13.78;60.56;100039.72;5116839;27;45308;-73
2023/04/22 05:28:39;;;;;;;;;39.00;32.75;;;;;13.76;60.83;100017.41;5116257;27;45390;-74
2023/04/22 05:31:05;;;;;;;;;33.25;29.25;;;;;13.60;60.63;100001.47;5116350;27;45411;-74
2023/04/22 05:33:31;;;;;;;;;33.50;33.25;;;;;13.74;60.73;100033.69;5116853;27;45318;-73
2023/04/22 05:35:56;;;;;;;;;35.00;33.25;;;;;13.68;60.28;100052.13;5116633;27;45393;-75
2023/04/22 05:38:21;;;;;;;;;32.75;29.75;;;;;13.68;61.22;100088.00;5116018;27;46264;-74
2023/04/22 05:40:47;;;;;;;;;34.25;32.25;;;;;13.62;61.80;100101.84;5116586;27;45287;-73
2023/04/22 05:43:12;;;;;;;;;30.00;29.50;;;;;13.47;62.30;100111.84;5097909;27;45472;-73
2023/04/22 05:45:38;;;;;;;;;39.25;34.25;;;;;13.33;62.95;100109.25;5097926;27;46103;-74
2023/04/22 05:48:03;;;;;;;;;31.50;27.75;;;;;13.24;63.00;100088.31;5116237;27;46200;-75
2023/04/22 05:50:28;;;;;;;;;28.25;28.25;;;;;13.24;63.18;100082.94;5116498;27;45390;-74
2023/04/22 05:52:54;;;;;;;;;30.25;29.25;;;;;13.33;64.57;100071.56;5112702;27;45250;-74
2023/04/22 05:55:19;;;;;;;;;33.50;32.00;;;;;13.24;64.34;100039.88;5095964;27;45323;-74
2023/04/22 05:57:44;;;;;;;;;33.75;30.50;;;;;13.09;65.40;100022.91;5095641;27;45551;-74
2023/04/22 06:00:10;;;;;;;;;33.50;29.00;;;;;13.30;65.35;100054.72;5112871;27;53214;-74
2023/04/22 06:02:36;;;;;;;;;30.50;30.50;;;;;13.33;65.28;100058.09;5097595;27;45393;-73
2023/04/22 06:05:01;;;;;;;;;32.50;32.00;;;;;13.29;65.51;100055.69;5093655;27;45390;-74
2023/04/22 06:07:26;;;;;;;;;32.00;30.50;;;;;13.37;65.69;100075.75;5111424;27;45493;-74
2023/04/22 06:09:52;;;;;;;;;34.00;33.75;;;;;13.38;65.61;100087.38;5114949;27;45494;-74
2023/04/22 06:12:18;;;;;;;;;33.50;30.75;;;;;13.40;65.88;100075.56;5115277;27;45229;-74
2023/04/22 06:14:43;;;;;;;;;30.75;28.75;;;;;13.44;65.70;100081.59;5115986;27;45570;-72
2023/04/22 06:17:08;;;;;;;;;36.75;31.75;;;;;13.31;65.61;100048.38;5115549;27;51562;-73
2023/04/22 06:19:34;;;;;;;;;39.00;33.25;;;;;13.45;65.50;100065.31;5116045;27;45333;-74
2023/04/22 06:21:59;;;;;;;;;31.25;29.00;;;;;13.47;66.05;100062.53;5115865;27;45473;-73
2023/04/22 06:24:25;;;;;;;;;31.75;31.75;;;;;13.47;65.66;100070.59;5115685;27;45403;-73
2023/04/22 06:26:50;;;;;;;;;35.75;32.75;;;;;13.45;65.92;100059.94;5115625;27;50604;-73
2023/04/22 06:29:15;;;;;;;;;37.75;33.75;;;;;13.41;65.10;100066.50;5115905;27;45395;-74
2023/04/22 06:31:41;;;;;;;;;31.50;31.25;;;;;13.47;65.51;100078.69;5115721;27;45577;-74
2023/04/22 06:34:06;;;;;;;;;33.75;32.50;;;;;13.35;65.52;100079.53;5115773;27;51424;-73
2023/04/22 06:36:36;;;;;;;;;38.75;34.50;;;;;13.41;65.65;100084.50;5115531;27;46550;-74
2023/04/22 06:39:02;;;;;;;;;33.00;33.00;;;;;13.36;65.69;100083.94;5115457;27;45452;-74
2023/04/22 06:41:28;;;;;;;;;31.75;31.75;;;;;13.34;66.07;100075.97;5114776;27;45483;-73
2023/04/22 06:43:53;;;;;;;;;29.25;27.50;;;;;13.33;66.37;100084.16;5115439;27;45388;-78
2023/04/22 06:46:18;;;;;;;;;30.50;30.00;;;;;13.37;66.30;100085.66;5114834;27;51370;-75
2023/04/22 06:48:44;;;;;;;;;29.00;27.25;;;;;13.20;65.36;100076.88;5115395;27;45353;-78
2023/04/22 06:51:10;;;;;;;;;29.50;28.50;;;;;13.30;66.66;100082.53;5114492;27;45388;-75
2023/04/22 06:53:35;;;;;;;;;35.50;31.75;;;;;13.21;66.40;100078.63;5106783;27;45618;-74
2023/04/22 06:56:02;;;;;;;;;37.50;34.50;;;;;13.20;66.71;100068.81;5094788;27;47794;-76
2023/04/22 06:58:27;;;;;;;;;34.00;32.00;;;;;13.16;66.97;100053.00;5094617;27;45389;-74
2023/04/22 07:00:52;;;;;;;;;35.50;32.50;;;;;13.22;66.86;100068.72;5094887;27;45240;-74
2023/04/22 07:03:17;;;;;;;;;34.75;33.25;;;;;13.23;67.41;100076.69;5076259;27;45571;-78
2023/04/22 07:05:43;;;;;;;;;28.50;28.50;;;;;13.23;67.86;100062.38;5094661;27;48273;-76
2023/04/22 07:08:08;;;;;;;;;36.00;33.50;;;;;13.29;67.30;100061.09;5094754;27;45469;-71
2023/04/22 07:10:34;;;;;;;;;33.50;27.75;;;;;13.30;67.68;100060.13;5095508;27;45401;-76
2023/04/22 07:12:59;;;;;;;;;31.75;28.00;;;;;13.31;67.92;100065.41;5096685;27;45477;-75
2023/04/22 07:15:24;;;;;;;;;38.75;33.00;;;;;13.27;68.40;100057.66;5108633;27;46037;-78
2023/04/22 07:17:50;;;;;;;;;30.25;28.25;;;;;13.32;67.62;100064.44;5115410;27;45389;-77
2023/04/22 07:20:16;;;;;;;;;33.00;30.00;;;;;13.34;67.61;100065.22;5115090;27;45506;-79
2023/04/22 07:22:41;;;;;;;;;33.50;28.50;;;;;13.33;68.18;100066.16;5114538;27;45388;-75
2023/04/22 07:25:07;;;;;;;;;35.25;32.00;;;;;13.33;67.90;100068.88;5116600;27;46048;-78
2023/04/22 07:27:35;;;;;;;;;32.00;30.75;;;;;13.31;68.54;100078.88;5118442;27;45497;-76
2023/04/22 07:30:00;;;;;;;;;32.75;30.25;;;;;13.21;68.57;100073.25;5118344;27;45496;-78
2023/04/22 07:32:26;;;;;;;;;33.75;30.00;;;;;13.14;68.34;100068.38;5118600;27;45246;-79
2023/04/22 07:34:51;;;;;;;;;34.50;30.00;;;;;13.24;68.87;100072.19;5118772;27;46132;-76
2023/04/22 07:37:17;;;;;;;;;35.50;33.00;;;;;13.26;69.04;100078.31;5112354;27;45378;-78
2023/04/22 07:39:42;;;;;;;;;29.00;29.00;;;;;13.27;69.30;100068.44;5112771;27;45426;-77
2023/04/22 07:42:07;;;;;;;;;29.00;26.50;;;;;13.07;68.72;100051.75;5118139;27;47946;-77
2023/04/22 07:44:32;;;;;;;;;31.75;31.75;;;;;13.18;69.00;100069.91;5104942;27;45426;-77
2023/04/22 07:46:58;;;;;;;;;33.25;32.00;;;;;13.10;69.46;100070.34;5097310;27;45344;-76
2023/04/22 07:49:23;;;;;;;;;32.50;29.00;;;;;13.18;69.76;100061.84;5097771;27;45466;-77
2023/04/22 07:51:49;;;;;;;;;32.50;30.25;;;;;13.18;70.25;100051.06;5111213;27;45568;-77
2023/04/22 07:54:15;;;;;;;;;33.50;31.75;;;;;13.28;69.94;100062.91;5104226;27;46233;-75
2023/04/22 07:56:40;;;;;;;;;31.00;29.00;;;;;13.27;69.89;100053.97;5078876;27;45307;-75
2023/04/22 07:59:05;;;;;;;;;36.25;31.25;;;;;13.32;70.00;100058.19;5097051;27;45569;-78
2023/04/22 08:01:31;;;;;;;;;31.50;31.25;;;;;13.24;69.66;100029.97;5097539;27;45497;-83
2023/04/22 08:03:56;;;;;;;;;36.00;29.00;;;;;13.41;69.58;100068.34;5097081;27;45641;-77
2023/04/22 08:06:22;;;;;;;;;29.00;26.50;;;;;13.33;70.38;100052.72;5104167;27;45419;-77
2023/04/22 08:08:47;;;;;;;;;33.50;31.75;;;;;13.35;70.53;100048.09;5077584;27;45417;-80
2023/04/22 08:11:12;;;;;;;;;31.00;28.25;;;;;13.43;70.43;100055.66;5096966;27;45498;-79
2023/04/22 08:13:38;;;;;;;;;26.50;26.50;;;;;13.50;70.79;100055.09;5078470;27;48575;-79
2023/04/22 08:16:03;;;;;;;;;31.75;31.50;;;;;13.54;70.64;100061.13;5097213;27;45393;-78
2023/04/22 08:18:29;;;;;;;;;29.50;29.50;;;;;13.36;70.55;100040.84;5097338;27;45410;-82
2023/04/22 08:20:55;;;;;;;;;28.25;27.00;;;;;13.38;71.54;100049.69;5096826;27;45410;-79
2023/04/22 08:23:21;;;;;;;;;28.25;28.25;;;;;13.52;71.77;100073.88;5097102;27;45296;-79
2023/04/22 08:25:49;;;;;;;;;38.25;29.50;;;;;13.32;71.87;100039.34;5096713;27;45525;-80
2023/04/22 08:28:16;;;;;;;;;27.00;25.25;;;;;13.55;72.55;100085.25;5097143;27;45335;-78
2023/04/22 08:30:41;;;;;;;;;30.25;29.00;;;;;13.51;72.38;100070.31;5102362;27;45528;-79
2023/04/22 08:33:06;;;;;;;;;28.75;27.00;;;;;13.49;72.37;100065.97;5099119;27;48089;-80
2023/04/22 08:35:35;;;;;;;;;24.50;23.75;;;;;13.57;73.30;100086.03;5117724;27;45403;-78
2023/04/22 08:38:01;;;;;;;;;27.00;23.00;;;;;13.38;73.04;100047.00;5096320;27;45296;-79
2023/04/22 08:40:27;;;;;;;;;26.00;25.25;;;;;13.56;73.75;100078.91;5098374;27;47538;-74
2023/04/22 08:42:54;;;;;;;;;26.25;25.75;;;;;13.55;73.76;100084.41;5116914;27;45392;-76
2023/04/22 08:45:20;;;;;;;;;20.75;20.75;;;;;13.36;73.95;100059.69;5117446;27;45449;-81
2023/04/22 08:47:51;;;;;;;;;20.75;20.75;;;;;13.45;74.18;100061.75;5098432;27;45464;-80
2023/04/22 08:50:20;;;;;;;;;25.75;24.00;;;;;13.44;74.08;100052.00;5117406;27;45355;-84
2023/04/22 08:52:45;;;;;;;;;20.25;20.00;;;;;13.47;75.61;100068.78;5099143;27;48096;-82
2023/04/22 08:55:10;;;;;;;;;27.50;25.00;;;;;13.47;74.99;100071.47;5099484;27;45424;-82
2023/04/22 08:57:38;;;;;;;;;20.75;19.50;;;;;13.53;74.64;100075.56;5084740;27;45267;-79
2023/04/22 09:00:06;;;;;;;;;27.75;24.75;;;;;13.67;75.42;100101.56;5089427;27;47335;-79
2023/04/22 09:02:32;;;;;;;;;23.50;22.25;;;;;13.58;76.19;100101.22;5101499;27;45937;-76
2023/04/22 09:05:00;;;;;;;;;24.00;22.25;;;;;13.60;76.67;100095.75;5118264;27;45330;-80
2023/04/22 09:07:29;;;;;;;;;22.75;19.25;;;;;13.58;76.16;100082.38;5099064;27;45329;-79
2023/04/22 09:09:55;;;;;;;;;25.75;24.25;;;;;13.49;76.29;100064.16;5098414;27;46038;-75
2023/04/22 09:12:21;;;;;;;;;26.75;24.75;;;;;13.80;76.03;100105.97;5116771;27;45914;-78
2023/04/22 09:14:46;;;;;;;;;25.50;23.50;;;;;13.83;77.00;100104.91;5117388;27;45635;-73
2023/04/22 09:17:17;;;;;;;;;22.50;22.50;;;;;13.83;76.62;100100.41;5118580;27;45817;-76
2023/04/22 09:19:43;;;;;;;;;23.50;23.25;;;;;13.88;76.54;100102.75;5099479;27;45492;-77
2023/04/22 09:22:14;;;;;;;;;20.00;20.00;;;;;13.97;77.01;100111.06;5098671;27;46496;-70
2023/04/22 09:24:48;;;;;;;;;24.25;23.50;;;;;14.02;77.09;100106.22;5098313;27;45477;-72
2023/04/22 09:27:16;;;;;;;;;23.00;21.25;;;;;13.99;77.20;100100.19;5116914;27;45322;-72
2023/04/22 09:29:48;;;;;;;;;25.75;22.00;;;;;14.05;77.65;100107.81;5116455;27;45987;-71
2023/04/22 09:32:13;;;;;;;;;16.75;16.25;;;;;14.09;77.65;100111.19;5116205;27;47202;-71
2023/04/22 09:34:57;;;;;;;;;16.75;16.75;;;;;14.05;78.29;100093.50;5118865;27;45591;-73
2023/04/22 09:37:25;;;;;;;;;23.25;20.25;;;;;14.19;77.92;100123.91;5126407;27;45336;-69
2023/04/22 09:39:52;;;;;;;;;16.25;16.25;;;;;14.13;77.89;100120.75;5123742;27;45467;-72
2023/04/22 09:42:18;;;;;;;;;20.00;17.50;;;;;13.97;78.42;100102.13;5104256;27;46206;-73
2023/04/22 09:44:47;;;;;;;;;14.75;14.50;;;;;14.09;78.34;100143.53;5119980;27;45428;-74
2023/04/22 09:47:13;;;;;;;;;14.25;14.25;;;;;14.00;78.42;100136.94;5102345;27;45576;-77
2023/04/22 09:49:39;;;;;;;;;13.25;13.25;;;;;14.08;77.95;100139.09;5124250;27;45560;-79
2023/04/22 09:52:05;;;;;;;;;10.00;9.00;;;;;14.12;77.67;100146.84;5114928;27;45560;-73
2023/04/22 09:54:32;;;;;;;;;17.50;17.50;;;;;14.19;77.62;100160.78;5125378;27;45600;-75
2023/04/22 09:56:57;;;;;;;;;19.75;18.25;;;;;14.17;77.56;100165.41;5120399;27;45530;-74
2023/04/22 09:59:28;;;;;;;;;19.50;18.50;;;;;14.05;76.98;100164.44;5115627;27;45297;-76
2023/04/22 10:01:56;;;;;;;;;17.25;16.00;;;;;14.11;77.08;100174.81;5113510;27;45575;-75
2023/04/22 10:04:24;;;;;;;;;12.75;12.75;;;;;14.00;76.97;100167.47;5099495;27;45449;-78
2023/04/22 10:06:50;;;;;;;;;13.75;12.50;;;;;13.92;76.90;100171.66;5077253;27;45386;-75
2023/04/22 10:09:24;;;;;;;;;15.75;14.75;;;;;13.93;76.95;100176.06;5095784;27;45313;-75
2023/04/22 10:11:52;;;;;;;;;14.00;12.50;;;;;13.92;77.01;100177.03;5104762;27;45441;-74
2023/04/22 10:14:18;;;;;;;;;13.50;13.50;;;;;13.99;77.12;100181.03;5094191;27;45543;-72
2023/04/22 10:16:46;;;;;;;;;15.00;13.50;;;;;14.07;76.47;100177.81;5117246;27;45337;-74
2023/04/22 10:19:23;;;;;;;;;15.25;15.25;;;;;14.06;76.50;100186.84;5094518;27;45480;-76
2023/04/22 10:21:51;;;;;;;;;10.50;10.50;;;;;13.95;76.03;100185.75;5092630;27;46205;-75
2023/04/22 10:24:18;;;;;;;;;11.25;11.00;;;;;13.94;76.97;100183.19;5114628;27;45307;-76
2023/04/22 10:26:57;;;;;;;;;13.00;13.00;;;;;13.97;75.96;100194.59;5112983;27;45245;-78
2023/04/22 10:29:23;;;;;;;;;21.25;19.25;;;;;13.80;76.73;100167.94;5108992;27;45444;-73
2023/04/22 10:32:16;;;;;;;;;16.75;16.50;;;;;13.84;75.65;100199.13;5111035;27;46017;-75
2023/04/22 10:34:46;;;;;;;;;14.25;13.00;;;;;13.68;76.31;100176.03;5101025;27;45304;-75
2023/04/22 10:37:13;;;;;;;;;16.50;14.75;;;;;13.77;76.01;100208.59;5100589;27;45380;-76
2023/04/22 10:39:41;;;;;;;;;19.75;16.75;;;;;13.67;76.49;100171.59;5105266;27;45482;-76
2023/04/22 10:42:12;;;;;;;;;18.25;18.25;;;;;13.78;76.29;100199.50;5100080;27;45730;-79
2023/04/22 10:45:00;;;;;;;;;15.00;15.00;;;;;13.76;75.22;100217.66;5109110;27;45571;-82
2023/04/22 10:47:34;;;;;;;;;13.75;13.75;;;;;13.80;75.20;100221.84;5107483;27;45579;-77
2023/04/22 10:50:10;;;;;;;;;17.75;16.25;;;;;13.67;74.57;100194.00;5092005;27;45598;-79
2023/04/22 10:52:36;;;;;;;;;13.25;13.25;;;;;13.90;73.86;100222.94;5111086;27;45535;-77
2023/04/22 10:55:03;;;;;;;;;19.00;17.25;;;;;13.90;74.57;100233.72;5112454;27;45491;-76
2023/04/22 10:57:36;;;;;;;;;16.00;16.00;;;;;13.88;74.15;100235.66;5113909;27;45542;-74
2023/04/22 11:00:21;;;;;;;;;19.00;19.00;;;;;13.94;73.84;100240.66;5111796;27;45360;-76
2023/04/22 11:02:53;;;;;;;;;16.75;16.75;;;;;13.90;73.28;100251.72;5115590;27;46133;-77
2023/04/22 11:05:22;;;;;;;;;21.75;17.50;;;;;13.71;72.98;100241.31;5113839;27;45362;-75
2023/04/22 11:07:51;;;;;;;;;21.75;19.75;;;;;13.64;73.32;100259.72;5097922;27;45582;-74
2023/04/22 11:10:39;;;;;;;;;15.25;15.25;;;;;13.56;73.44;100262.06;5112941;27;45484;-77
2023/04/22 11:13:06;;;;;;;;;15.25;15.25;;;;;13.00;73.16;100176.91;5115857;27;46275;-76
2023/04/22 11:15:35;;;;;;;;;18.75;18.00;;;;;13.57;73.03;100271.88;5117959;27;45384;-75
2023/04/22 11:18:01;;;;;;;;;16.75;16.75;;;;;13.56;72.65;100280.03;5098024;27;45400;-75
2023/04/22 11:20:27;;;;;;;;;19.00;17.25;;;;;13.43;73.38;100268.34;5115420;27;45333;-75
2023/04/22 11:22:55;;;;;;;;;14.25;14.25;;;;;13.29;73.90;100258.47;5116638;27;46350;-77
2023/04/22 11:25:22;;;;;;;;;16.50;16.50;;;;;13.45;73.33;100278.03;5116229;27;45965;-75
2023/04/22 11:27:48;;;;;;;;;18.75;17.25;;;;;13.48;73.57;100267.09;5099152;27;45537;-74
2023/04/22 11:30:16;;;;;;;;;18.00;17.25;;;;;13.62;72.97;100274.25;5115566;27;45681;-77
2023/04/22 11:32:47;;;;;;;;;21.50;20.50;;;;;13.69;71.72;100282.81;5098043;27;45373;-77
2023/04/22 11:35:14;;;;;;;;;27.25;19.25;;;;;13.77;71.94;100296.63;5114820;27;45375;-79
2023/04/22 11:37:44;;;;;;;;;20.50;18.50;;;;;13.67;72.15;100268.56;5116068;27;45492;-75
2023/04/22 11:40:38;;;;;;;;;22.75;18.25;;;;;13.75;71.24;100280.56;5098257;27;46446;-77
2023/04/22 11:43:05;;;;;;;;;19.75;18.00;;;;;13.79;72.09;100295.53;5113478;27;46318;-75
2023/04/22 11:45:32;;;;;;;;;21.00;18.50;;;;;13.90;71.18;100306.47;5115730;27;45292;-75
2023/04/22 11:47:59;;;;;;;;;30.75;29.25;;;;;13.95;71.41;100309.72;5113814;27;45351;-76
2023/04/22 11:50:27;;;;;;;;;24.50;22.00;;;;;13.90;71.69;100311.00;5114286;27;45526;-77
2023/04/22 11:52:54;;;;;;;;;20.25;20.25;;;;;13.90;71.33;100309.19;5114320;27;47049;-84
2023/04/22 11:55:37;;;;;;;;;20.50;20.50;;;;;13.97;71.48;100315.03;5112219;27;45599;-75
2023/04/22 11:58:11;;;;;;;;;22.00;20.75;;;;;13.87;70.72;100284.25;5098218;27;45474;-75
2023/04/22 12:00:46;;;;;;;;;18.00;18.00;;;;;14.06;70.32;100322.50;5095439;27;45385;-80
2023/04/22 12:03:20;;;;;;;;;20.25;20.25;;;;;14.08;70.32;100317.88;5086261;27;46573;-70
2023/04/22 12:05:50;;;;;;;;;21.50;20.75;;;;;14.17;71.07;100321.78;5112645;27;45351;-73
2023/04/22 12:08:18;;;;;;;;;14.50;14.50;;;;;14.11;70.19;100333.84;5117057;27;45538;-72
2023/04/22 12:10:44;;;;;;;;;17.50;17.50;;;;;14.09;70.57;100337.59;5116661;27;47441;-72
2023/04/22 12:13:20;;;;;;;;;23.50;21.75;;;;;14.10;70.19;100333.94;5099163;27;46068;-72
2023/04/22 12:15:46;;;;;;;;;25.00;24.50;;;;;14.15;70.01;100329.97;5117496;27;45322;-74
2023/04/22 12:18:12;;;;;;;;;24.25;23.25;;;;;14.19;69.72;100339.59;5117118;27;45591;-74
2023/04/22 12:20:42;;;;;;;;;23.75;19.75;;;;;13.95;70.20;100327.75;5108633;27;45617;-77
2023/04/22 12:23:12;;;;;;;;;24.00;23.75;;;;;14.05;70.19;100349.53;5116510;27;45716;-74
2023/04/22 12:25:38;;;;;;;;;24.25;22.25;;;;;14.07;70.76;100347.63;5116926;27;45569;-76
2023/04/22 12:28:03;;;;;;;;;19.25;18.25;;;;;14.14;70.64;100357.03;5117403;27;45352;-78
2023/04/22 12:30:28;;;;;;;;;20.25;18.75;;;;;14.04;71.03;100340.59;5110295;27;45212;-74
2023/04/22 12:32:54;;;;;;;;;23.25;21.75;;;;;14.13;70.91;100347.19;5104927;27;45468;-79
2023/04/22 12:35:20;;;;;;;;;23.75;22.00;;;;;14.23;70.53;100351.88;5112863;27;49215;-73
2023/04/22 12:37:45;;;;;;;;;20.50;18.25;;;;;14.13;69.99;100321.09;5097094;27;45490;-74
2023/04/22 12:40:11;;;;;;;;;25.50;24.25;;;;;14.53;70.38;100351.69;5109631;27;45310;-73
2023/04/22 12:42:36;;;;;;;;;28.75;26.75;;;;;14.84;69.40;100352.25;5116833;27;45347;-72
2023/04/22 12:45:03;;;;;;;;;22.75;20.75;;;;;15.29;69.28;100353.56;5111020;27;47683;-73
2023/04/22 12:47:28;;;;;;;;;21.75;21.50;;;;;15.79;66.11;100355.31;5107550;27;45418;-74
2023/04/22 12:49:53;;;;;;;;;24.25;24.25;;;;;16.04;63.97;100360.63;5117124;27;45513;-72
2023/04/22 12:52:19;;;;;;;;;26.25;24.00;;;;;16.13;62.42;100340.16;5115219;27;45420;-73
2023/04/22 12:54:44;;;;;;;;;26.75;22.50;;;;;16.33;61.73;100355.75;5117618;27;45386;-70
2023/04/22 12:57:10;;;;;;;;;23.50;22.50;;;;;16.61;61.87;100359.91;5091989;27;45341;-72
2023/04/22 12:59:36;;;;;;;;;21.50;20.00;;;;;16.88;61.42;100355.06;5117040;27;45490;-73
2023/04/22 13:02:01;;;;;;;;;17.50;17.50;;;;;17.03;59.59;100363.84;5117091;27;46181;-70
2023/04/22 13:04:26;;;;;;;;;17.00;17.00;;;;;17.15;59.45;100352.03;5117204;27;45342;-72
2023/04/22 13:06:55;;;;;;;;;21.25;18.75;;;;;17.40;58.19;100345.53;5117527;27;45332;-71
2023/04/22 13:09:24;;;;;;;;;26.50;22.75;;;;;17.78;57.15;100364.97;5116894;27;46018;-73
2023/04/22 13:11:49;;;;;;;;;23.00;20.00;;;;;18.08;57.16;100369.75;5117186;27;46291;-72
2023/04/22 13:14:15;;;;;;;;;15.25;14.75;;;;;18.44;55.12;100349.53;5098404;27;45431;-73
2023/04/22 13:16:40;;;;;;;;;18.00;16.00;;;;;18.77;53.48;100344.94;5116980;27;45670;-73
2023/04/22 13:19:06;;;;;;;;;16.75;16.25;;;;;19.25;52.84;100361.53;5117583;27;45398;-73
2023/04/22 13:21:31;;;;;;;;;18.75;17.00;;;;;19.42;52.52;100352.75;5116986;27;45510;-72
2023/04/22 13:23:57;;;;;;;;;18.25;17.00;;;;;19.57;51.91;100354.13;5117155;27;45298;-73
2023/04/22 13:26:22;;;;;;;;;15.25;14.75;;;;;19.80;49.78;100352.06;5117469;27;45454;-72
2023/04/22 13:28:48;;;;;;;;;17.75;17.00;;;;;19.98;49.87;100353.13;5117135;27;45488;-73
2023/04/22 13:31:13;;;;;;;;;18.00;15.75;;;;;20.14;48.83;100363.47;5116843;27;45563;-71
2023/04/22 13:33:38;;;;;;;;;13.00;13.00;;;;;19.95;48.48;100361.56;5113230;27;45393;-73
2023/04/22 13:36:04;;;;;;;;;15.75;13.75;;;;;20.24;48.07;100358.03;5096555;27;45671;-73
2023/04/22 13:38:30;;;;;;;;;13.50;13.50;;;;;20.62;47.56;100346.31;5095825;27;45524;-72
2023/04/22 13:40:55;;;;;;;;;10.00;10.00;;;;;20.91;45.03;100352.59;5096190;27;45403;-73
2023/04/22 13:43:21;;;;;;;;;11.00;11.00;;;;;20.86;44.76;100354.03;5095739;27;45382;-73
2023/04/22 13:45:47;;;;;;;;;12.25;11.50;;;;;20.94;45.37;100360.47;5096219;27;45430;-73
2023/04/22 13:48:13;;;;;;;;;10.00;9.75;;;;;21.11;45.22;100358.84;5116117;27;46721;-73
2023/04/22 13:50:41;;;;;;;;;15.50;11.75;;;;;21.26;44.18;100343.81;5116285;27;45334;-72
2023/04/22 13:53:09;;;;;;;;;11.25;9.75;;;;;21.09;44.26;100337.22;5112024;27;45446;-74
2023/04/22 13:55:35;;;;;;;;;10.25;10.25;;;;;21.06;44.29;100342.09;5095925;27;46477;-73
2023/04/22 13:58:01;;;;;;;;;10.25;10.25;;;;;21.06;44.16;100347.53;5099310;27;45779;-73
2023/04/22 14:00:26;;;;;;;;;8.50;8.50;;;;;21.21;42.93;100343.38;5116317;27;45624;-72
2023/04/22 14:02:51;;;;;;;;;12.25;9.75;;;;;21.24;43.54;100336.78;5116125;27;45360;-72
2023/04/22 14:05:17;;;;;;;;;9.75;9.75;;;;;20.96;43.03;100335.81;5116437;27;45408;-72
2023/04/22 14:07:43;;;;;;;;;8.50;8.00;;;;;20.90;44.16;100339.97;5115927;27;45372;-72
2023/04/22 14:10:10;;;;;;;;;10.50;10.50;;;;;20.89;43.95;100343.72;5116213;27;46212;-70
2023/04/22 14:12:36;;;;;;;;;9.00;9.00;;;;;20.53;44.24;100318.09;5116294;27;45373;-78
2023/04/22 14:15:02;;;;;;;;;9.75;9.75;;;;;20.34;44.75;100327.09;5116707;27;45495;-76
2023/04/22 14:17:27;;;;;;;;;9.75;8.50;;;;;20.14;44.58;100333.53;5115892;27;45748;-77
2023/04/22 14:19:53;;;;;;;;;9.00;9.00;;;;;20.04;45.71;100327.19;5114257;27;45241;-76
2023/04/22 14:22:18;;;;;;;;;8.75;7.50;;;;;19.86;46.19;100337.91;5110743;27;45630;-76
2023/04/22 14:24:43;;;;;;;;;12.50;11.00;;;;;19.72;46.59;100334.72;5108387;27;45267;-76
2023/04/22 14:27:10;;;;;;;;;10.00;9.75;;;;;19.64;47.16;100336.28;5110145;27;45495;-76
2023/04/22 14:29:36;;;;;;;;;8.75;8.00;;;;;19.63;47.70;100333.69;5081672;27;46497;-75
2023/04/22 14:32:01;;;;;;;;;8.25;8.00;;;;;19.36;47.66;100307.09;5108781;27;45383;-77
2023/04/22 14:34:27;;;;;;;;;9.50;9.50;;;;;19.28;47.68;100325.94;5096297;27;45610;-74
2023/04/22 14:36:52;;;;;;;;;10.50;10.00;;;;;19.07;48.21;100301.50;5098039;27;45294;-78
2023/04/22 14:39:17;;;;;;;;;8.00;8.00;;;;;19.29;48.03;100319.50;5095786;27;45444;-77
2023/04/22 14:41:43;;;;;;;;;12.00;12.00;;;;;19.38;48.16;100326.84;5096882;27;45397;-76
2023/04/22 14:44:08;;;;;;;;;11.75;10.50;;;;;19.46;48.14;100326.16;5095721;27;45372;-76
2023/04/22 14:46:33;;;;;;;;;9.75;9.75;;;;;19.45;47.69;100319.00;5093921;27;45553;-78
2023/04/22 14:48:59;;;;;;;;;10.75;10.75;;;;;19.46;48.06;100331.59;5076603;27;48468;-77
2023/04/22 14:51:26;;;;;;;;;11.75;10.75;;;;;19.49;46.73;100326.75;5092917;27;45524;-78
2023/04/22 14:53:51;;;;;;;;;11.25;11.00;;;;;19.44;46.37;100320.00;5105196;27;45595;-79
2023/04/22 14:56:17;;;;;;;;;11.75;9.75;;;;;19.38;46.26;100309.69;5094820;27;45455;-80
2023/04/22 14:58:42;;;;;;;;;7.25;6.75;;;;;19.41;46.27;100325.69;5094576;27;53254;-80
2023/04/22 15:01:07;;;;;;;;;11.25;9.25;;;;;19.35;46.01;100320.81;5094737;27;45363;-78
2023/04/22 15:03:34;;;;;;;;;9.00;7.25;;;;;19.38;46.76;100326.84;5094886;27;45263;-81
2023/04/22 15:05:59;;;;;;;;;6.25;6.00;;;;;19.31;44.79;100308.50;5104763;27;45690;-75
2023/04/22 15:08:25;;;;;;;;;7.50;7.50;;;;;19.09;45.07;100299.53;5094482;27;45385;-80
2023/04/22 15:10:50;;;;;;;;;9.75;6.25;;;;;18.93;45.53;100299.16;5094897;27;45342;-78
2023/04/22 15:13:16;;;;;;;;;9.50;9.50;;;;;18.97;46.24;100294.31;5095071;27;45351;-77
2023/04/22 15:15:41;;;;;;;;;8.75;8.75;;;;;19.02;46.55;100300.19;5095370;27;45660;-74
2023/04/22 15:18:07;;;;;;;;;7.00;6.75;;;;;18.97;46.49;100284.28;5077504;27;45933;-75
2023/04/22 15:20:33;;;;;;;;;10.25;6.75;;;;;18.99;46.02;100304.03;5095384;27;45315;-76
2023/04/22 15:23:00;;;;;;;;;8.00;8.00;;;;;18.96;44.88;100303.47;5094917;27;45326;-76
2023/04/22 15:25:26;;;;;;;;;7.00;7.00;;;;;18.92;43.62;100292.00;5094576;27;45430;-75
2023/04/22 15:27:52;;;;;;;;;9.25;7.50;;;;;19.08;43.62;100307.81;5094493;27;46165;-76
2023/04/22 15:30:17;;;;;;;;;7.25;7.25;;;;;19.18;42.75;100295.13;5093927;27;45476;-75
2023/04/22 15:32:43;;;;;;;;;6.00;6.00;;;;;19.35;43.05;100301.78;5095808;27;45339;-75
2023/04/22 15:35:09;;;;;;;;;5.75;5.75;;;;;19.43;42.26;100301.94;5097661;27;47490;-74
2023/04/22 15:37:34;;;;;;;;;5.25;5.25;;;;;19.58;41.92;100308.75;5093992;27;46134;-76
2023/04/22 15:40:00;;;;;;;;;7.00;7.00;;;;;19.71;41.50;100301.22;5094082;27;45216;-73
2023/04/22 15:42:25;;;;;;;;;6.25;6.25;;;;;19.94;40.65;100312.72;5094171;27;45414;-75